Station Historical Data
Daily Summary for May 12, 2011 Units:  English    Metric   Both
« Previous Day
Next Day »
Daily Weekly Monthly Yearly Custom
  High: Low: Average:
Temperature: 86.5 °F 63.3 °F 74.9 °F
Dew Point: 70.0 °F 60.5 °F 66 °F
Humidity: 95% 47% 76%
Wind Speed: 16.0mph 0.0mph 2.9mph
Wind Gust: 23.0mph - -
Wind- - South
Pressure: 29.94 in 29.84 in -
Precipitation: 0.34 in    
Historical Graphs
 
 
Tabular Data for May 12, 2011
Time Temperature Dew Point Pressure Wind Wind Speed Wind Gust Humidity Rainfall Rate (Hourly) Conditions
00:00 72.6 °F 67.2 °F 29.91 in SSE 1.0 mph 2.0 mph 83% 0.00 in
00:01 72.6 °F 67.2 °F 29.91 in SSE 1.0 mph 2.0 mph 83% 0.00 in
00:03 72.7 °F 67.2 °F 29.91 in SSE 2.0 mph 2.0 mph 83% 0.00 in
00:06 73.0 °F 67.2 °F 29.90 in SSE 2.0 mph 2.0 mph 82% 0.00 in
00:11 72.9 °F 67.1 °F 29.90 in Calm   2.0 mph 82% 0.00 in
00:12 72.9 °F 67.1 °F 29.90 in SE 1.0 mph 2.0 mph 82% 0.00 in
00:17 72.6 °F 67.2 °F 29.91 in SSE 1.0 mph 2.0 mph 83% 0.00 in
00:22 72.7 °F 67.2 °F 29.91 in Calm     83% 0.00 in
00:27 72.8 °F 67.3 °F 29.90 in Calm   1.0 mph 83% 0.00 in
00:28 72.8 °F 67.3 °F 29.90 in Calm   1.0 mph 83% 0.00 in
00:29 72.8 °F 67.3 °F 29.90 in Calm   1.0 mph 83% 0.00 in
00:32 72.8 °F 67.3 °F 29.90 in SE 1.0 mph 1.0 mph 83% 0.00 in
00:34 72.8 °F 67.3 °F 29.90 in SE 1.0 mph 1.0 mph 83% 0.00 in
00:35 72.8 °F 67.3 °F 29.90 in SE 1.0 mph 1.0 mph 83% 0.00 in
00:38 72.7 °F 67.2 °F 29.90 in SE 1.0 mph 1.0 mph 83% 0.00 in
00:43 72.6 °F 67.2 °F 29.91 in Calm     83% 0.00 in
00:48 72.2 °F 67.1 °F 29.91 in Calm     84% 0.00 in
00:54 72.1 °F 67.0 °F 29.90 in Calm     84% 0.00 in
00:59 72.2 °F 67.1 °F 29.91 in Calm   1.0 mph 84% 0.00 in
01:04 72.2 °F 67.4 °F 29.90 in SE 1.0 mph 1.0 mph 85% 0.00 in
01:09 72.4 °F 67.3 °F 29.90 in Calm   1.0 mph 84% 0.00 in
01:14 72.4 °F 67.3 °F 29.91 in Calm   1.0 mph 84% 0.00 in
01:19 72.0 °F 66.9 °F 29.91 in SE 1.0 mph 1.0 mph 84% 0.00 in
01:24 71.6 °F 66.9 °F 29.91 in ESE 1.0 mph 1.0 mph 85% 0.00 in
01:29 71.2 °F 66.8 °F 29.91 in ESE 1.0 mph 1.0 mph 86% 0.00 in
01:30 71.2 °F 66.8 °F 29.91 in ESE 1.0 mph 1.0 mph 86% 0.00 in
01:31 71.1 °F 66.7 °F 29.91 in ESE 1.0 mph 1.0 mph 86% 0.00 in
01:34 71.0 °F 66.6 °F 29.91 in East 1.0 mph 2.0 mph 86% 0.00 in
01:36 70.9 °F 66.8 °F 29.91 in East 2.0 mph 2.0 mph 87% 0.00 in
01:41 70.7 °F 66.7 °F 29.91 in East 1.0 mph 3.0 mph 87% 0.00 in
01:42 70.7 °F 66.7 °F 29.91 in ESE 1.0 mph 3.0 mph 87% 0.00 in
01:46 70.6 °F 66.6 °F 29.90 in ESE 1.0 mph 2.0 mph 87% 0.00 in
01:47 70.6 °F 66.6 °F 29.90 in East 1.0 mph 2.0 mph 87% 0.00 in
01:52 70.5 °F 66.8 °F 29.90 in Calm   2.0 mph 88% 0.00 in
01:53 70.5 °F 66.8 °F 29.90 in SE 1.0 mph 2.0 mph 88% 0.00 in
01:57 70.5 °F 66.8 °F 29.90 in Calm   1.0 mph 88% 0.00 in
01:58 70.5 °F 66.8 °F 29.90 in SE 1.0 mph 1.0 mph 88% 0.00 in
02:03 70.4 °F 66.7 °F 29.90 in SE 1.0 mph 1.0 mph 88% 0.00 in
02:08 70.4 °F 66.7 °F 29.90 in Calm   2.0 mph 88% 0.00 in
02:13 70.3 °F 66.6 °F 29.90 in Calm     88% 0.00 in
02:19 70.1 °F 66.4 °F 29.90 in Calm     88% 0.00 in
02:24 70.0 °F 66.6 °F 29.90 in Calm     89% 0.00 in
02:29 70.1 °F 66.7 °F 29.90 in SSE 1.0 mph 1.0 mph 89% 0.00 in
02:30 70.1 °F 66.7 °F 29.89 in SSE 1.0 mph 1.0 mph 89% 0.00 in
02:34 70.2 °F 66.8 °F 29.89 in SSE 1.0 mph 1.0 mph 89% 0.00 in
02:35 70.2 °F 66.8 °F 29.89 in SSE 1.0 mph 1.0 mph 89% 0.00 in
02:36 70.2 °F 66.8 °F 29.89 in SSE 1.0 mph 1.0 mph 89% 0.00 in
02:41 70.2 °F 66.8 °F 29.89 in SSE 1.0 mph 1.0 mph 89% 0.00 in
02:46 70.2 °F 66.8 °F 29.89 in SE 1.0 mph 1.0 mph 89% 0.00 in
02:51 70.1 °F 66.7 °F 29.89 in SE 1.0 mph 1.0 mph 89% 0.00 in
02:52 70.1 °F 66.7 °F 29.89 in SE 1.0 mph 1.0 mph 89% 0.00 in
02:57 69.9 °F 66.5 °F 29.89 in Calm   1.0 mph 89% 0.00 in
02:59 69.8 °F 66.7 °F 29.89 in SE 1.0 mph 1.0 mph 90% 0.00 in
03:04 69.8 °F 66.7 °F 29.89 in Calm     90% 0.00 in
03:10 69.8 °F 66.7 °F 29.89 in Calm   1.0 mph 90% 0.00 in
03:15 69.8 °F 66.7 °F 29.89 in Calm   1.0 mph 90% 0.00 in
03:16 69.8 °F 66.7 °F 29.89 in Calm   1.0 mph 90% 0.00 in
03:21 69.6 °F 66.5 °F 29.89 in SE 1.0 mph 1.0 mph 90% 0.00 in
03:26 69.6 °F 66.5 °F 29.89 in SE 1.0 mph 1.0 mph 90% 0.00 in
03:27 69.6 °F 66.5 °F 29.89 in SE 1.0 mph 1.0 mph 90% 0.00 in
03:31 69.6 °F 66.5 °F 29.89 in SE 1.0 mph 1.0 mph 90% 0.00 in
03:33 69.6 °F 66.5 °F 29.89 in SSE 1.0 mph 2.0 mph 90% 0.00 in
03:38 69.6 °F 66.5 °F 29.89 in SSE 2.0 mph 2.0 mph 90% 0.00 in
03:43 69.6 °F 66.5 °F 29.89 in SSE 2.0 mph 2.0 mph 90% 0.00 in
03:48 69.4 °F 66.3 °F 29.89 in Calm   1.0 mph 90% 0.00 in
03:53 69.1 °F 66.1 °F 29.89 in Calm     90% 0.00 in
03:54 69.1 °F 66.1 °F 29.89 in Calm     90% 0.00 in
03:58 68.8 °F 66.1 °F 29.89 in Calm     91% 0.00 in
04:03 68.6 °F 65.9 °F 29.89 in Calm     91% 0.00 in
04:08 68.4 °F 65.7 °F 29.89 in Calm   1.0 mph 91% 0.00 in
04:13 68.3 °F 65.9 °F 29.89 in Calm   2.0 mph 92% 0.00 in
04:18 68.2 °F 65.8 °F 29.89 in Calm     92% 0.00 in
04:23 68.1 °F 65.7 °F 29.89 in Calm     92% 0.00 in
04:28 68.0 °F 65.6 °F 29.89 in Calm     92% 0.00 in
04:33 68.0 °F 65.9 °F 29.89 in WSW 2.0 mph 2.0 mph 93% 0.00 in
04:36 68.1 °F 66.0 °F 29.89 in SW 1.0 mph 2.0 mph 93% 0.00 in
04:41 68.2 °F 66.1 °F 29.90 in WSW 2.0 mph 2.0 mph 93% 0.00 in
04:46 68.4 °F 66.0 °F 29.89 in WSW 1.0 mph 1.0 mph 92% 0.00 in
04:51 68.3 °F 65.9 °F 29.89 in Calm   1.0 mph 92% 0.00 in
04:52 68.3 °F 65.9 °F 29.89 in Calm   1.0 mph 92% 0.00 in
04:57 68.1 °F 66.0 °F 29.89 in Calm   1.0 mph 93% 0.00 in
04:59 68.0 °F 65.9 °F 29.89 in Calm   1.0 mph 93% 0.00 in
05:02 67.9 °F 65.8 °F 29.89 in SW 1.0 mph 1.0 mph 93% 0.00 in
05:07 67.7 °F 65.6 °F 29.89 in Calm   1.0 mph 93% 0.00 in
05:12 67.6 °F 65.5 °F 29.89 in Calm     93% 0.00 in
05:17 67.5 °F 65.7 °F 29.89 in Calm     94% 0.00 in
05:22 67.3 °F 65.5 °F 29.89 in Calm     94% 0.00 in
05:27 67.1 °F 65.3 °F 29.89 in Calm     94% 0.00 in
05:31 67.4 °F 65.9 °F 29.89 in Calm     95% 0.00 in
05:32 67.5 °F 65.7 °F 29.89 in Calm     94% 0.00 in
05:37 67.8 °F 66.0 °F 29.89 in Calm   1.0 mph 94% 0.00 in
05:42 68.1 °F 66.0 °F 29.89 in ESE 1.0 mph 1.0 mph 93% 0.00 in
05:47 68.3 °F 65.9 °F 29.89 in Calm   1.0 mph 92% 0.00 in
05:52 68.2 °F 65.8 °F 29.90 in ESE 1.0 mph 1.0 mph 92% 0.00 in
05:57 68.3 °F 65.9 °F 29.90 in ESE 1.0 mph 1.0 mph 92% 0.00 in
05:58 68.3 °F 65.9 °F 29.90 in ESE 1.0 mph 1.0 mph 92% 0.00 in
06:03 68.2 °F 65.8 °F 29.90 in ESE 1.0 mph 1.0 mph 92% 0.00 in
06:08 68.0 °F 65.6 °F 29.90 in ESE 1.0 mph 1.0 mph 92% 0.00 in
06:13 67.9 °F 65.5 °F 29.90 in ESE 1.0 mph 1.0 mph 92% 0.00 in
06:18 67.9 °F 65.5 °F 29.90 in ESE 1.0 mph 2.0 mph 92% 0.00 in
06:19 67.9 °F 65.5 °F 29.90 in ESE 1.0 mph 2.0 mph 92% 0.00 in
06:24 67.9 °F 65.5 °F 29.90 in East 1.0 mph 2.0 mph 92% 0.00 in
06:29 67.9 °F 65.5 °F 29.90 in East 1.0 mph 1.0 mph 92% 0.00 in
06:34 67.7 °F 65.6 °F 29.91 in East 1.0 mph 1.0 mph 93% 0.00 in
06:35 67.7 °F 65.6 °F 29.91 in East 1.0 mph 2.0 mph 93% 0.00 in
06:38 67.6 °F 65.5 °F 29.91 in Calm   1.0 mph 93% 0.00 in
06:43 67.5 °F 65.4 °F 29.91 in Calm   1.0 mph 93% 0.00 in
06:48 67.3 °F 65.2 °F 29.91 in Calm     93% 0.00 in
06:53 67.1 °F 65.0 °F 29.91 in Calm     93% 0.00 in
06:55 67.0 °F 65.2 °F 29.91 in Calm     94% 0.00 in
06:58 66.8 °F 65.0 °F 29.91 in Calm     94% 0.00 in
07:00 66.8 °F 65.0 °F 29.91 in East 1.0 mph 2.0 mph 94% 0.00 in
07:03 66.7 °F 64.9 °F 29.91 in Calm   2.0 mph 94% 0.00 in
07:08 66.5 °F 64.7 °F 29.91 in Calm   1.0 mph 94% 0.00 in
07:13 66.4 °F 64.9 °F 29.92 in Calm     95% 0.00 in
07:18 66.4 °F 64.9 °F 29.92 in Calm     95% 0.00 in
07:24 66.4 °F 64.9 °F 29.92 in Calm     95% 0.00 in
07:29 66.4 °F 64.9 °F 29.92 in Calm     95% 0.00 in
07:33 66.4 °F 64.9 °F 29.92 in Calm     95% 0.00 in
07:34 66.4 °F 64.9 °F 29.92 in Calm     95% 0.00 in
07:38 66.5 °F 65.0 °F 29.93 in Calm     95% 0.00 in
07:43 66.5 °F 65.0 °F 29.93 in Calm     95% 0.00 in
07:44 66.5 °F 65.0 °F 29.93 in Calm     95% 0.00 in
07:49 66.7 °F 65.2 °F 29.93 in Calm     95% 0.00 in
07:54 67.0 °F 65.5 °F 29.93 in Calm     95% 0.00 in
07:55 67.1 °F 65.6 °F 29.93 in Calm     95% 0.00 in
07:59 67.3 °F 65.8 °F 29.93 in Calm     95% 0.00 in
08:04 67.9 °F 66.4 °F 29.94 in Calm     95% 0.00 in
08:09 68.8 °F 67.0 °F 29.94 in SE 3.0 mph 4.0 mph 94% 0.00 in
08:14 69.6 °F 67.2 °F 29.94 in SE 3.0 mph 4.0 mph 92% 0.00 in
08:19 69.7 °F 67.3 °F 29.94 in SE 1.0 mph 3.0 mph 92% 0.00 in
08:24 69.8 °F 67.1 °F 29.94 in SE 1.0 mph 2.0 mph 91% 0.00 in
08:29 70.2 °F 67.4 °F 29.94 in ESE 2.0 mph 4.0 mph 91% 0.00 in
08:33 70.6 °F 67.5 °F 29.94 in SSE 3.0 mph 4.0 mph 90% 0.00 in
08:35 70.6 °F 67.2 °F 29.94 in SE 3.0 mph 4.0 mph 89% 0.00 in
08:39 71.0 °F 67.6 °F 29.94 in SSE 3.0 mph 3.0 mph 89% 0.00 in
08:40 71.1 °F 67.7 °F 29.94 in SE 3.0 mph 3.0 mph 89% 0.00 in
08:45 71.5 °F 67.8 °F 29.94 in SSE 3.0 mph 4.0 mph 88% 0.00 in
08:46 71.5 °F 67.8 °F 29.94 in SSE 3.0 mph 4.0 mph 88% 0.00 in
08:51 72.1 °F 68.3 °F 29.94 in SE 2.0 mph 3.0 mph 88% 0.00 in
08:52 72.3 °F 68.2 °F 29.94 in SE 3.0 mph 3.0 mph 87% 0.00 in
08:56 72.9 °F 68.8 °F 29.94 in SE 3.0 mph 4.0 mph 87% 0.00 in
08:58 72.9 °F 68.1 °F 29.94 in SE 3.0 mph 5.0 mph 85% 0.00 in
08:59 73.0 °F 68.6 °F 29.94 in SE 2.0 mph 5.0 mph 86% 0.00 in
09:03 73.4 °F 69.0 °F 29.94 in SSE 4.0 mph 4.0 mph 86% 0.00 in
09:08 74.0 °F 68.5 °F 29.94 in SE 3.0 mph 5.0 mph 83% 0.00 in
09:13 74.5 °F 69.0 °F 29.94 in SE 3.0 mph 5.0 mph 83% 0.00 in
09:18 74.9 °F 68.7 °F 29.94 in SSE 4.0 mph 4.0 mph 81% 0.00 in
09:23 75.2 °F 68.6 °F 29.94 in SSE 4.0 mph 4.0 mph 80% 0.00 in
09:28 75.6 °F 68.6 °F 29.94 in SE 3.0 mph 4.0 mph 79% 0.00 in
09:33 75.8 °F 68.1 °F 29.94 in SW 4.0 mph 5.0 mph 77% 0.00 in
09:36 75.9 °F 68.6 °F 29.94 in SSE 3.0 mph 4.0 mph 78% 0.00 in
09:38 76.1 °F 68.8 °F 29.94 in South 2.0 mph 4.0 mph 78% 0.00 in
09:43 76.3 °F 68.9 °F 29.93 in SE 3.0 mph 5.0 mph 78% 0.00 in
09:48 76.6 °F 69.2 °F 29.94 in SE 4.0 mph 5.0 mph 78% 0.00 in
09:53 77.0 °F 69.2 °F 29.93 in SSE 2.0 mph 6.0 mph 77% 0.00 in
09:54 77.0 °F 69.2 °F 29.93 in SSE 5.0 mph 6.0 mph 77% 0.00 in
09:55 77.1 °F 69.7 °F 29.94 in SSE 3.0 mph 6.0 mph 78% 0.00 in
09:59 77.3 °F 68.8 °F 29.94 in South 3.0 mph 6.0 mph 75% 0.00 in
10:01 77.4 °F 68.9 °F 29.94 in SSE 4.0 mph 6.0 mph 75% 0.00 in
10:06 77.5 °F 68.6 °F 29.94 in SW 4.0 mph 7.0 mph 74% 0.00 in
10:11 78.0 °F 68.7 °F 29.94 in SSW 4.0 mph 7.0 mph 73% 0.00 in
10:16 78.3 °F 69.7 °F 29.93 in SSE 4.0 mph 7.0 mph 75% 0.00 in
10:21 78.3 °F 68.9 °F 29.93 in SSE 3.0 mph 5.0 mph 73% 0.00 in
10:26 78.3 °F 68.1 °F 29.93 in SW 4.0 mph 5.0 mph 71% 0.00 in
10:27 78.3 °F 68.9 °F 29.93 in SW 2.0 mph 5.0 mph 73% 0.00 in
10:31 78.6 °F 67.6 °F 29.93 in SW 5.0 mph 6.0 mph 69% 0.00 in
10:32 78.6 °F 68.0 °F 29.93 in SSW 3.0 mph 6.0 mph 70% 0.00 in
10:34 78.7 °F 68.5 °F 29.93 in South 3.0 mph 6.0 mph 71% 0.00 in
10:37 79.1 °F 68.9 °F 29.93 in SW 5.0 mph 5.0 mph 71% 0.00 in
10:42 79.1 °F 68.1 °F 29.93 in SE 3.0 mph 5.0 mph 69% 0.00 in
10:47 79.5 °F 68.4 °F 29.93 in SE 5.0 mph 7.0 mph 69% 0.00 in
10:52 80.0 °F 68.5 °F 29.93 in SE 5.0 mph 8.0 mph 68% 0.00 in
10:57 80.3 °F 68.8 °F 29.93 in SSE 4.0 mph 5.0 mph 68% 0.00 in
10:58 80.4 °F 68.9 °F 29.93 in SE 3.0 mph 5.0 mph 68% 0.00 in
11:02 80.6 °F 69.1 °F 29.93 in South 3.0 mph 6.0 mph 68% 0.00 in
11:03 80.6 °F 69.1 °F 29.93 in SSW 3.0 mph 6.0 mph 68% 0.00 in
11:08 80.8 °F 68.4 °F 29.93 in SW 3.0 mph 8.0 mph 66% 0.00 in
11:13 81.0 °F 68.1 °F 29.93 in SW 6.0 mph 7.0 mph 65% 0.00 in
11:18 81.0 °F 68.6 °F 29.93 in SSE 2.0 mph 6.0 mph 66% 0.00 in
11:19 81.1 °F 68.7 °F 29.93 in WSW 4.0 mph 6.0 mph 66% 0.00 in
11:23 81.5 °F 68.6 °F 29.93 in SW 2.0 mph 7.0 mph 65% 0.00 in
11:28 82.0 °F 69.5 °F 29.93 in WSW 6.0 mph 8.0 mph 66% 0.00 in
11:29 81.9 °F 69.4 °F 29.93 in SW 4.0 mph 10.0 mph 66% 0.00 in
11:30 81.9 °F 69.4 °F 29.93 in SW 7.0 mph 10.0 mph 66% 0.00 in
11:33 81.6 °F 68.7 °F 29.93 in SW 7.0 mph 7.0 mph 65% 0.00 in
11:35 81.6 °F 69.2 °F 29.93 in WSW 5.0 mph 7.0 mph 66% 0.00 in
11:36 81.5 °F 68.6 °F 29.93 in WSW 4.0 mph 7.0 mph 65% 0.00 in
11:40 81.9 °F 69.4 °F 29.93 in SW 5.0 mph 5.0 mph 66% 0.00 in
11:45 81.9 °F 69.0 °F 29.92 in SW 4.0 mph 7.0 mph 65% 0.00 in
11:46 81.9 °F 69.0 °F 29.92 in South 2.0 mph 6.0 mph 65% 0.00 in
11:51 82.5 °F 69.1 °F 29.92 in SSW 3.0 mph 4.0 mph 64% 0.00 in
11:52 82.6 °F 69.7 °F 29.92 in SSW 7.0 mph 7.0 mph 65% 0.00 in
11:53 82.7 °F 67.9 °F 29.92 in SE 4.0 mph 7.0 mph 61% 0.00 in
11:56 82.8 °F 69.8 °F 29.92 in South 4.0 mph 12.0 mph 65% 0.00 in
11:57 82.8 °F 68.9 °F 29.92 in South 3.0 mph 12.0 mph 63% 0.00 in
11:59 82.9 °F 68.6 °F 29.92 in SSW 3.0 mph 9.0 mph 62% 0.00 in
12:01 82.8 °F 67.5 °F 29.92 in SW 5.0 mph 8.0 mph 60% 0.00 in
12:06 82.6 °F 68.7 °F 29.92 in SSW 3.0 mph 6.0 mph 63% 0.00 in
12:11 83.0 °F 70.0 °F 29.92 in SSE 4.0 mph 7.0 mph 65% 0.00 in
12:17 83.2 °F 67.9 °F 29.91 in SSE 6.0 mph 7.0 mph 60% 0.00 in
12:18 83.2 °F 68.4 °F 29.91 in South 5.0 mph 9.0 mph 61% 0.00 in
12:23 83.0 °F 67.7 °F 29.91 in SE 6.0 mph 9.0 mph 60% 0.00 in
12:28 83.0 °F 69.6 °F 29.90 in SE 1.0 mph 5.0 mph 64% 0.00 in
12:29 83.3 °F 69.9 °F 29.90 in SE 8.0 mph 8.0 mph 64% 0.00 in
12:33 83.2 °F 68.8 °F 29.91 in SE 8.0 mph 9.0 mph 62% 0.00 in
12:36 83.2 °F 67.9 °F 29.90 in SSW 3.0 mph 8.0 mph 60% 0.00 in
12:41 83.4 °F 66.1 °F 29.90 in ESE 6.0 mph 8.0 mph 56% 0.00 in
12:46 82.9 °F 68.1 °F 29.90 in SE 7.0 mph 12.0 mph 61% 0.00 in
12:51 82.9 °F 69.0 °F 29.90 in SE 5.0 mph 9.0 mph 63% 0.00 in
12:52 83.1 °F 69.2 °F 29.90 in SSW 7.0 mph 9.0 mph 63% 0.00 in
12:56 83.8 °F 68.4 °F 29.90 in SSW 6.0 mph 7.0 mph 60% 0.00 in
12:57 83.9 °F 68.1 °F 29.90 in South 4.0 mph 7.0 mph 59% 0.00 in
12:58 84.0 °F 68.1 °F 29.89 in SE 3.0 mph 7.0 mph 59% 0.00 in
12:59 84.1 °F 66.7 °F 29.90 in SE 7.0 mph 8.0 mph 56% 0.00 in
13:04 84.3 °F 67.4 °F 29.90 in SW 2.0 mph 8.0 mph 57% 0.00 in
13:09 84.2 °F 68.3 °F 29.90 in South 4.0 mph 7.0 mph 59% 0.00 in
13:14 84.2 °F 66.8 °F 29.89 in WSW 5.0 mph 9.0 mph 56% 0.00 in
13:19 84.6 °F 67.2 °F 29.90 in SW 6.0 mph 11.0 mph 56% 0.00 in
13:20 84.5 °F 67.1 °F 29.90 in SSW 7.0 mph 11.0 mph 56% 0.00 in
13:25 84.4 °F 65.9 °F 29.90 in South 3.0 mph 10.0 mph 54% 0.00 in
13:26 84.4 °F 65.9 °F 29.90 in SSE 5.0 mph 10.0 mph 54% 0.00 in
13:30 84.0 °F 65.6 °F 29.90 in West 5.0 mph 9.0 mph 54% 0.00 in
13:31 83.8 °F 65.4 °F 29.90 in SW 10.0 mph 10.0 mph 54% 0.00 in
13:32 83.7 °F 66.3 °F 29.90 in South 5.0 mph 10.0 mph 56% 0.00 in
13:34 83.6 °F 66.8 °F 29.90 in SW 7.0 mph 10.0 mph 57% 0.00 in
13:36 83.5 °F 66.7 °F 29.90 in SW 5.0 mph 7.0 mph 57% 0.00 in
13:41 83.9 °F 65.5 °F 29.90 in WSW 5.0 mph 9.0 mph 54% 0.00 in
13:46 84.2 °F 67.8 °F 29.90 in SSW 6.0 mph 10.0 mph 58% 0.00 in
13:51 84.5 °F 66.6 °F 29.90 in South 6.0 mph 9.0 mph 55% 0.00 in
13:56 84.5 °F 65.5 °F 29.90 in South 5.0 mph 11.0 mph 53% 0.00 in
13:59 84.7 °F 66.2 °F 29.90 in SSW 4.0 mph 9.0 mph 54% 0.00 in
14:01 85.0 °F 67.6 °F 29.90 in SSW 8.0 mph 8.0 mph 56% 0.00 in
14:06 85.2 °F 66.7 °F 29.90 in South 3.0 mph 8.0 mph 54% 0.00 in
14:11 85.2 °F 66.7 °F 29.90 in SW 8.0 mph 10.0 mph 54% 0.00 in
14:16 85.2 °F 67.2 °F 29.89 in WSW 6.0 mph 8.0 mph 55% 0.00 in
14:17 85.2 °F 67.2 °F 29.89 in SW 6.0 mph 8.0 mph 55% 0.00 in
14:22 85.4 °F 68.4 °F 29.90 in SW 5.0 mph 10.0 mph 57% 0.00 in
14:27 85.4 °F 68.4 °F 29.90 in SSE 12.0 mph 12.0 mph 57% 0.00 in
14:32 85.6 °F 67.1 °F 29.89 in SSW 2.0 mph 9.0 mph 54% 0.00 in
14:33 85.6 °F 67.1 °F 29.89 in WSW 3.0 mph 9.0 mph 54% 0.00 in
14:37 85.4 °F 65.8 °F 29.89 in SSW 9.0 mph 9.0 mph 52% 0.00 in
14:42 85.9 °F 67.3 °F 29.89 in South 4.0 mph 4.0 mph 54% 0.00 in
14:47 86.0 °F 64.6 °F 29.89 in SSE 6.0 mph 9.0 mph 49% 0.00 in
14:52 85.2 °F 65.1 °F 29.89 in South 3.0 mph 5.0 mph 51% 0.00 in
14:53 85.1 °F 65.0 °F 29.89 in SSW 1.0 mph 5.0 mph 51% 0.00 in
14:58 85.6 °F 66.5 °F 29.89 in SSW 5.0 mph 8.0 mph 53% 0.00 in
15:03 84.8 °F 65.8 °F 29.89 in SSW 5.0 mph 8.0 mph 53% 0.00 in
15:08 85.4 °F 66.3 °F 29.88 in SE 5.0 mph 8.0 mph 53% 0.00 in
15:13 85.7 °F 65.5 °F 29.88 in SW 4.0 mph 6.0 mph 51% 0.00 in
15:18 85.9 °F 64.0 °F 29.88 in SE 2.0 mph 7.0 mph 48% 0.00 in
15:26 86.4 °F 66.2 °F 29.88 in South 5.0 mph 9.0 mph 51% 0.00 in
15:27 86.4 °F 65.6 °F 29.88 in SSW 5.0 mph 7.0 mph 50% 0.00 in
15:32 85.8 °F 64.4 °F 29.88 in SSW 4.0 mph 10.0 mph 49% 0.00 in
15:37 85.9 °F 65.7 °F 29.88 in SE 4.0 mph 7.0 mph 51% 0.00 in
15:38 86.0 °F 65.8 °F 29.88 in SSW 6.0 mph 7.0 mph 51% 0.00 in
15:43 86.0 °F 65.2 °F 29.88 in SW 6.0 mph 6.0 mph 50% 0.00 in
15:49 86.2 °F 65.4 °F 29.88 in WSW 4.0 mph 7.0 mph 50% 0.00 in
15:50 86.2 °F 66.5 °F 29.88 in WSW 5.0 mph 7.0 mph 52% 0.00 in
15:55 86.2 °F 65.4 °F 29.88 in South 7.0 mph 10.0 mph 50% 0.00 in
15:57 86.1 °F 64.7 °F 29.88 in SW 9.0 mph 10.0 mph 49% 0.00 in
16:00 85.9 °F 65.7 °F 29.88 in South 4.0 mph 13.0 mph 51% 0.00 in
16:02 85.9 °F 65.7 °F 29.88 in SSW 7.0 mph 7.0 mph 51% 0.00 in
16:06 85.6 °F 64.8 °F 29.87 in SW 8.0 mph 11.0 mph 50% 0.00 in
16:11 85.7 °F 66.1 °F 29.87 in SE 4.0 mph 7.0 mph 52% 0.00 in
16:16 85.8 °F 66.2 °F 29.86 in SSE 2.0 mph 8.0 mph 52% 0.00 in
16:21 86.1 °F 65.9 °F 29.86 in South 6.0 mph 7.0 mph 51% 0.00 in
16:26 85.5 °F 65.3 °F 29.86 in SW 6.0 mph 11.0 mph 51% 0.00 in
16:27 85.4 °F 64.7 °F 29.86 in WSW 3.0 mph 11.0 mph 50% 0.00 in
16:31 85.4 °F 65.8 °F 29.86 in SSW 3.0 mph 8.0 mph 52% 0.00 in
16:32 85.4 °F 65.8 °F 29.86 in SSW 4.0 mph 8.0 mph 52% 0.00 in
16:33 85.5 °F 65.9 °F 29.86 in South 7.0 mph 9.0 mph 52% 0.00 in
16:37 85.7 °F 66.1 °F 29.85 in SSE 3.0 mph 8.0 mph 52% 0.00 in
16:42 85.8 °F 64.4 °F 29.85 in SSE 5.0 mph 8.0 mph 49% 0.00 in
16:47 85.8 °F 63.9 °F 29.85 in South 4.0 mph 7.0 mph 48% 0.00 in
16:52 85.9 °F 65.1 °F 29.85 in SSW 5.0 mph 7.0 mph 50% 0.00 in
16:53 85.9 °F 65.7 °F 29.85 in WSW 5.0 mph 7.0 mph 51% 0.00 in
16:54 85.8 °F 65.6 °F 29.85 in SSE 3.0 mph 8.0 mph 51% 0.00 in
16:58 85.8 °F 65.6 °F 29.85 in SSW 3.0 mph 7.0 mph 51% 0.00 in
17:00 85.9 °F 66.2 °F 29.85 in SE 7.0 mph 7.0 mph 52% 0.00 in
17:03 85.7 °F 64.4 °F 29.84 in SSW 6.0 mph 10.0 mph 49% 0.00 in
17:08 85.5 °F 66.4 °F 29.84 in SW 8.0 mph 8.0 mph 53% 0.00 in
17:13 85.6 °F 65.4 °F 29.84 in SSW 5.0 mph 8.0 mph 51% 0.00 in
17:18 85.9 °F 64.5 °F 29.85 in SSE 7.0 mph 8.0 mph 49% 0.00 in
17:23 86.0 °F 64.6 °F 29.84 in SSW 3.0 mph 7.0 mph 49% 0.00 in
17:31 86.4 °F 64.4 °F 29.85 in South 6.0 mph 7.0 mph 48% 0.00 in
17:32 86.4 °F 64.4 °F 29.85 in SSE 5.0 mph 7.0 mph 48% 0.00 in
17:34 86.5 °F 63.9 °F 29.84 in SW 3.0 mph 7.0 mph 47% 0.00 in
17:37 86.3 °F 64.3 °F 29.84 in SSW 4.0 mph 7.0 mph 48% 0.00 in
17:42 86.2 °F 64.8 °F 29.84 in SE 5.0 mph 8.0 mph 49% 0.00 in
17:47 86.0 °F 64.0 °F 29.84 in SW 7.0 mph 10.0 mph 48% 0.00 in
17:52 85.8 °F 63.9 °F 29.84 in SW 3.0 mph 6.0 mph 48% 0.00 in
17:55 85.7 °F 64.4 °F 29.84 in SW 3.0 mph 7.0 mph 49% 0.00 in
17:58 85.7 °F 63.8 °F 29.84 in South 5.0 mph 7.0 mph 48% 0.00 in
18:00 85.9 °F 64.5 °F 29.84 in SSE 4.0 mph 7.0 mph 49% 0.00 in
18:03 86.0 °F 64.0 °F 29.84 in SSE 2.0 mph 6.0 mph 48% 0.00 in
18:08 85.6 °F 65.4 °F 29.84 in SW 3.0 mph 6.0 mph 51% 0.00 in
18:13 84.9 °F 65.9 °F 29.84 in WSW 3.0 mph 5.0 mph 53% 0.00 in
18:18 84.1 °F 64.6 °F 29.84 in SW 2.0 mph 6.0 mph 52% 0.00 in
18:23 83.7 °F 66.3 °F 29.84 in SSE 2.0 mph 5.0 mph 56% 0.00 in
18:24 83.6 °F 66.3 °F 29.84 in SSE 1.0 mph 5.0 mph 56% 0.00 in
18:29 83.2 °F 65.4 °F 29.84 in SSW 3.0 mph 5.0 mph 55% 0.00 in
18:32 83.1 °F 65.3 °F 29.84 in SSW 2.0 mph 4.0 mph 55% 0.00 in
18:36 82.9 °F 65.1 °F 29.84 in SSW 2.0 mph 4.0 mph 55% 0.00 in
18:41 82.6 °F 65.3 °F 29.85 in WSW 2.0 mph 3.0 mph 56% 0.00 in
18:46 82.3 °F 66.6 °F 29.85 in West 2.0 mph 4.0 mph 59% 0.00 in
18:51 81.1 °F 65.4 °F 29.86 in NW 15.0 mph 20.0 mph 59% 0.00 in
18:54 79.1 °F 63.1 °F 29.86 in NNW 16.0 mph 23.0 mph 58% 0.00 in
18:56 76.9 °F 62.9 °F 29.86 in NNW 11.0 mph 19.0 mph 62% 0.00 in
18:57 76.7 °F 62.7 °F 29.86 in NW 7.0 mph 19.0 mph 62% 0.00 in
18:58 76.1 °F 63.0 °F 29.86 in WNW 11.0 mph 17.0 mph 64% 0.00 in
19:03 74.3 °F 63.5 °F 29.86 in NW 11.0 mph 21.0 mph 69% 0.00 in
19:08 73.3 °F 63.7 °F 29.86 in WNW 9.0 mph 13.0 mph 72% 0.00 in
19:13 73.0 °F 63.8 °F 29.86 in NW 9.0 mph 12.0 mph 73% 0.00 in
19:18 72.7 °F 63.9 °F 29.86 in NW 5.0 mph 9.0 mph 74% 0.00 in
19:23 72.6 °F 64.2 °F 29.86 in NW 3.0 mph 7.0 mph 75% 0.00 in
19:28 72.3 °F 63.9 °F 29.86 in NNW 6.0 mph 10.0 mph 75% 0.00 in
19:30 72.2 °F 64.6 °F 29.86 in NW 8.0 mph 10.0 mph 77% 0.00 in
19:33 71.8 °F 64.6 °F 29.85 in NW 4.0 mph 6.0 mph 78% 0.00 in
19:35 71.8 °F 64.6 °F 29.85 in NNW 3.0 mph 5.0 mph 78% 0.00 in
19:36 71.7 °F 64.5 °F 29.85 in NNW 5.0 mph 7.0 mph 78% 0.00 in
19:42 71.8 °F 65.3 °F 29.85 in North 5.0 mph 6.0 mph 80% 0.00 in
19:47 72.0 °F 65.5 °F 29.85 in NNE 6.0 mph 6.0 mph 80% 0.00 in
19:52 72.0 °F 65.1 °F 29.85 in NNE 3.0 mph 5.0 mph 79% 0.00 in
19:56 71.8 °F 65.7 °F 29.85 in NNE 4.0 mph 7.0 mph 81% 0.00 in
19:57 71.8 °F 65.7 °F 29.85 in NNE 5.0 mph 6.0 mph 81% 0.00 in
20:02 72.0 °F 65.1 °F 29.85 in NNE 1.0 mph 5.0 mph 79% 0.00 in
20:07 71.9 °F 65.0 °F 29.86 in East 3.0 mph 3.0 mph 79% 0.00 in
20:12 71.8 °F 64.9 °F 29.86 in ESE 4.0 mph 5.0 mph 79% 0.00 in
20:17 71.8 °F 65.3 °F 29.85 in ESE 3.0 mph 8.0 mph 80% 0.00 in
20:22 71.8 °F 64.9 °F 29.85 in East 2.0 mph 4.0 mph 79% 0.00 in
20:27 71.8 °F 65.3 °F 29.85 in NNE 2.0 mph 3.0 mph 80% 0.00 in
20:29 71.8 °F 65.3 °F 29.85 in NE 1.0 mph 3.0 mph 80% 0.00 in
20:34 71.4 °F 64.9 °F 29.85 in NE 2.0 mph 3.0 mph 80% 0.00 in
20:35 71.4 °F 64.9 °F 29.85 in NE 2.0 mph 3.0 mph 80% 0.00 in
20:36 71.3 °F 64.8 °F 29.85 in NE 1.0 mph 3.0 mph 80% 0.00 in
20:41 71.1 °F 65.0 °F 29.85 in NE 1.0 mph 1.0 mph 81% 0.00 in
20:42 71.0 °F 64.9 °F 29.85 in NE 1.0 mph 1.0 mph 81% 0.00 in
20:47 70.9 °F 64.8 °F 29.85 in ENE 1.0 mph 2.0 mph 81% 0.00 in
20:52 70.8 °F 64.7 °F 29.84 in NNE 2.0 mph 3.0 mph 81% 0.00 in
20:53 70.8 °F 64.7 °F 29.84 in NE 2.0 mph 3.0 mph 81% 0.00 in
20:55 70.7 °F 64.9 °F 29.84 in East 1.0 mph 2.0 mph 82% 0.00 in
20:58 70.7 °F 64.9 °F 29.84 in NE 1.0 mph 2.0 mph 82% 0.00 in
21:00 70.5 °F 64.8 °F 29.85 in NE 2.0 mph 2.0 mph 82% 0.00 in
21:05 70.3 °F 64.6 °F 29.85 in NNW 1.0 mph 2.0 mph 82% 0.00 in
21:10 69.9 °F 64.5 °F 29.85 in NNE 3.0 mph 3.0 mph 83% 0.00 in
21:11 69.8 °F 64.4 °F 29.85 in NNE 1.0 mph 3.0 mph 83% 0.00 in
21:16 69.6 °F 64.6 °F 29.86 in Calm   1.0 mph 84% 0.00 in
21:21 69.4 °F 64.7 °F 29.86 in Calm   1.0 mph 85% 0.00 in
21:26 69.3 °F 65.3 °F 29.89 in WNW 8.0 mph 13.0 mph 87% 0.00 in
21:27 69.3 °F 65.3 °F 29.89 in WNW 9.0 mph 13.0 mph 87% 0.00 in
21:32 70.0 °F 65.6 °F 29.89 in West 8.0 mph 13.0 mph 86% 0.00 in
21:35 70.2 °F 64.4 °F 29.89 in WNW 10.0 mph 15.0 mph 82% 0.00 in
21:37 70.1 °F 63.7 °F 29.89 in WNW 12.0 mph 16.0 mph 80% 0.00 in
21:42 68.5 °F 61.0 °F 29.89 in WNW 11.0 mph 16.0 mph 77% 0.00 in
21:47 66.4 °F 60.7 °F 29.89 in WNW 11.0 mph 19.0 mph 82% 2.97 in
21:52 65.5 °F 60.5 °F 29.86 in NNW 5.0 mph 8.0 mph 84% 2.28 in
21:54 65.4 °F 60.8 °F 29.86 in North 8.0 mph 8.0 mph 85% 0.60 in
21:58 65.0 °F 61.0 °F 29.85 in NNE 3.0 mph 4.0 mph 87% 0.21 in
21:59 64.8 °F 60.8 °F 29.85 in NE 3.0 mph 4.0 mph 87% 0.21 in
22:03 64.8 °F 60.8 °F 29.85 in ESE 1.0 mph 2.0 mph 87% 0.09 in
22:08 64.7 °F 61.4 °F 29.85 in Calm   1.0 mph 89% 0.05 in
22:13 64.4 °F 61.7 °F 29.85 in NW 2.0 mph 2.0 mph 91% 0.04 in
22:23 63.8 °F 61.7 °F 29.86 in ENE 5.0 mph 5.0 mph 93% 0.00 in
22:28 64.2 °F 62.1 °F 29.86 in NE 1.0 mph 4.0 mph 93% 0.00 in
22:29 64.1 °F 62.0 °F 29.86 in NE 1.0 mph 4.0 mph 93% 0.00 in
22:30 64.1 °F 62.0 °F 29.86 in ESE 1.0 mph 2.0 mph 93% 0.00 in
22:34 64.2 °F 61.8 °F 29.86 in Calm   3.0 mph 92% 0.00 in
22:35 64.2 °F 61.8 °F 29.86 in Calm   2.0 mph 92% 0.00 in
22:36 64.2 °F 62.1 °F 29.86 in Calm   2.0 mph 93% 0.00 in
22:40 63.9 °F 61.8 °F 29.86 in SSE 1.0 mph 1.0 mph 93% 0.00 in
22:45 63.7 °F 62.0 °F 29.86 in SSE 1.0 mph 1.0 mph 94% 0.00 in
22:50 63.4 °F 61.7 °F 29.86 in Calm   2.0 mph 94% 0.00 in
22:51 63.4 °F 61.7 °F 29.86 in Calm   2.0 mph 94% 0.00 in
22:55 63.3 °F 61.8 °F 29.86 in Calm   1.0 mph 95% 0.00 in
22:57 63.3 °F 61.8 °F 29.86 in Calm   1.0 mph 95% 0.00 in
23:01 63.4 °F 62.0 °F 29.86 in ESE 1.0 mph 1.0 mph 95% 0.00 in
23:06 63.5 °F 62.0 °F 29.86 in ESE 1.0 mph 2.0 mph 95% 0.00 in
23:11 63.6 °F 62.2 °F 29.86 in ESE 2.0 mph 2.0 mph 95% 0.00 in
23:16 63.7 °F 62.2 °F 29.86 in SE 1.0 mph 2.0 mph 95% 0.00 in
23:21 63.6 °F 61.8 °F 29.85 in SE 2.0 mph 2.0 mph 94% 0.00 in
23:26 63.5 °F 61.8 °F 29.85 in ESE 1.0 mph 2.0 mph 94% 0.00 in
23:28 63.5 °F 61.8 °F 29.85 in SE 1.0 mph 2.0 mph 94% 0.00 in
23:33 63.5 °F 61.8 °F 29.85 in Calm   1.0 mph 94% 0.00 in
23:34 63.5 °F 61.8 °F 29.85 in Calm   1.0 mph 94% 0.00 in
23:36 63.4 °F 61.7 °F 29.85 in Calm   1.0 mph 94% 0.00 in
23:39 63.5 °F 61.8 °F 29.85 in ESE 1.0 mph 1.0 mph 94% 0.00 in
23:44 63.5 °F 61.8 °F 29.85 in Calm   1.0 mph 94% 0.00 in
23:49 63.3 °F 61.5 °F 29.85 in Calm     94% 0.00 in
23:54 63.3 °F 61.5 °F 29.85 in ESE 1.0 mph 1.0 mph 94% 0.00 in
23:55 63.3 °F 61.5 °F 29.85 in ESE 1.0 mph 1.0 mph 94% 0.00 in
Compliments of Weather Underground